Nikolaevsk, Alaska
Current Conditions -  °F | °C
As of 11:53 AM on Thursday 23 Oct 2014 (Local Time) from PAHO Reporting Station
Clear Clear  
Wind Chill: 38°   Ceiling: Unl
Heat Index: 41°   Visibility: 10mi
Dew Point: 31°   Wind: 5mph
Humidity: 67%   Direction: 60°ENE
Pressure: 29.71"   Gusts: NA
Location:  59.8183°N, 151.638°W
Report Text: PAHO 231953Z 06004KT 10SM CLR 05/M01 A2971 RMK AO2 SLP063 T00501006
Loading
Personal Weather Stations






























Interactive Weather Map New forecast layout! Learn more

10-Day Weather Forecast

Advertisements
Track Severe Weather on mobile